sensor_id;sensor_type;location;lat;lon;timestamp;P1;durP1;ratioP1;P2;durP2;ratioP2
3083;SDS011;1552;51.952;7.618;2023-06-14T00:01:10;5.43;;;3.38;;
3083;SDS011;1552;51.952;7.618;2023-06-14T00:03:38;7.15;;;3.60;;
3083;SDS011;1552;51.952;7.618;2023-06-14T00:06:05;7.03;;;3.33;;
3083;SDS011;1552;51.952;7.618;2023-06-14T00:08:31;8.80;;;3.50;;
3083;SDS011;1552;51.952;7.618;2023-06-14T00:10:57;6.57;;;3.20;;
3083;SDS011;1552;51.952;7.618;2023-06-14T00:13:25;6.18;;;2.97;;
3083;SDS011;1552;51.952;7.618;2023-06-14T00:15:52;6.68;;;2.83;;
3083;SDS011;1552;51.952;7.618;2023-06-14T00:18:19;5.82;;;3.50;;
3083;SDS011;1552;51.952;7.618;2023-06-14T00:20:49;4.78;;;2.97;;
3083;SDS011;1552;51.952;7.618;2023-06-14T00:23:16;8.35;;;3.47;;
3083;SDS011;1552;51.952;7.618;2023-06-14T00:25:42;5.75;;;2.80;;
3083;SDS011;1552;51.952;7.618;2023-06-14T00:28:08;4.70;;;3.42;;
3083;SDS011;1552;51.952;7.618;2023-06-14T00:30:35;5.55;;;3.20;;
3083;SDS011;1552;51.952;7.618;2023-06-14T00:33:03;3.53;;;2.85;;
3083;SDS011;1552;51.952;7.618;2023-06-14T00:35:29;4.55;;;2.83;;
3083;SDS011;1552;51.952;7.618;2023-06-14T00:37:56;8.00;;;3.17;;
3083;SDS011;1552;51.952;7.618;2023-06-14T00:40:22;3.90;;;2.67;;
3083;SDS011;1552;51.952;7.618;2023-06-14T00:42:49;6.95;;;3.58;;
3083;SDS011;1552;51.952;7.618;2023-06-14T00:45:16;5.22;;;2.70;;
3083;SDS011;1552;51.952;7.618;2023-06-14T00:47:43;7.05;;;3.08;;
3083;SDS011;1552;51.952;7.618;2023-06-14T00:50:11;6.95;;;3.13;;
3083;SDS011;1552;51.952;7.618;2023-06-14T00:52:38;4.70;;;3.03;;
3083;SDS011;1552;51.952;7.618;2023-06-14T00:55:05;7.47;;;3.35;;
3083;SDS011;1552;51.952;7.618;2023-06-14T00:57:32;5.72;;;3.40;;
3083;SDS011;1552;51.952;7.618;2023-06-14T01:00:03;4.55;;;2.72;;
3083;SDS011;1552;51.952;7.618;2023-06-14T01:02:34;10.63;;;4.70;;
3083;SDS011;1552;51.952;7.618;2023-06-14T01:05:01;6.32;;;3.13;;
3083;SDS011;1552;51.952;7.618;2023-06-14T01:07:31;8.55;;;2.65;;
3083;SDS011;1552;51.952;7.618;2023-06-14T01:10:04;5.40;;;2.78;;
3083;SDS011;1552;51.952;7.618;2023-06-14T01:12:36;5.57;;;3.30;;
3083;SDS011;1552;51.952;7.618;2023-06-14T01:15:05;7.30;;;3.30;;
3083;SDS011;1552;51.952;7.618;2023-06-14T01:17:33;4.35;;;2.63;;
3083;SDS011;1552;51.952;7.618;2023-06-14T01:20:00;7.15;;;2.92;;
3083;SDS011;1552;51.952;7.618;2023-06-14T01:22:29;4.40;;;2.97;;
3083;SDS011;1552;51.952;7.618;2023-06-14T01:24:57;3.53;;;2.75;;
3083;SDS011;1552;51.952;7.618;2023-06-14T01:27:24;5.30;;;2.72;;
3083;SDS011;1552;51.952;7.618;2023-06-14T01:29:53;5.30;;;2.92;;
3083;SDS011;1552;51.952;7.618;2023-06-14T01:32:21;4.78;;;2.42;;
3083;SDS011;1552;51.952;7.618;2023-06-14T01:34:48;5.60;;;2.42;;
3083;SDS011;1552;51.952;7.618;2023-06-14T01:37:15;11.18;;;2.95;;
3083;SDS011;1552;51.952;7.618;2023-06-14T01:39:43;3.65;;;2.72;;
3083;SDS011;1552;51.952;7.618;2023-06-14T01:42:11;5.15;;;2.90;;
3083;SDS011;1552;51.952;7.618;2023-06-14T01:44:39;6.38;;;2.70;;
3083;SDS011;1552;51.952;7.618;2023-06-14T01:47:06;7.47;;;3.13;;
3083;SDS011;1552;51.952;7.618;2023-06-14T01:49:33;4.60;;;2.78;;
3083;SDS011;1552;51.952;7.618;2023-06-14T01:51:59;7.07;;;2.60;;
3083;SDS011;1552;51.952;7.618;2023-06-14T01:54:26;3.85;;;2.65;;
3083;SDS011;1552;51.952;7.618;2023-06-14T01:56:54;4.90;;;2.40;;
3083;SDS011;1552;51.952;7.618;2023-06-14T01:59:22;4.78;;;2.80;;
3083;SDS011;1552;51.952;7.618;2023-06-14T02:01:49;5.90;;;2.80;;
3083;SDS011;1552;51.952;7.618;2023-06-14T02:04:15;6.20;;;2.85;;
3083;SDS011;1552;51.952;7.618;2023-06-14T02:06:42;4.05;;;2.53;;
3083;SDS011;1552;51.952;7.618;2023-06-14T02:09:08;3.55;;;2.40;;
3083;SDS011;1552;51.952;7.618;2023-06-14T02:11:34;6.68;;;3.40;;
3083;SDS011;1552;51.952;7.618;2023-06-14T02:14:01;4.75;;;2.63;;
3083;SDS011;1552;51.952;7.618;2023-06-14T02:16:29;4.72;;;2.90;;
3083;SDS011;1552;51.952;7.618;2023-06-14T02:18:55;6.55;;;3.53;;
3083;SDS011;1552;51.952;7.618;2023-06-14T02:21:22;5.85;;;2.70;;
3083;SDS011;1552;51.952;7.618;2023-06-14T02:23:48;7.55;;;2.72;;
3083;SDS011;1552;51.952;7.618;2023-06-14T02:26:15;6.57;;;2.90;;
3083;SDS011;1552;51.952;7.618;2023-06-14T02:28:41;3.90;;;2.47;;
3083;SDS011;1552;51.952;7.618;2023-06-14T02:31:08;3.65;;;2.47;;
3083;SDS011;1552;51.952;7.618;2023-06-14T02:33:36;3.22;;;2.90;;
3083;SDS011;1552;51.952;7.618;2023-06-14T02:36:03;4.22;;;2.45;;
3083;SDS011;1552;51.952;7.618;2023-06-14T02:38:29;3.33;;;2.28;;
3083;SDS011;1552;51.952;7.618;2023-06-14T02:40:55;4.22;;;2.63;;
3083;SDS011;1552;51.952;7.618;2023-06-14T02:43:22;4.45;;;2.58;;
3083;SDS011;1552;51.952;7.618;2023-06-14T02:45:48;4.07;;;2.35;;
3083;SDS011;1552;51.952;7.618;2023-06-14T02:48:14;4.32;;;2.50;;
3083;SDS011;1552;51.952;7.618;2023-06-14T02:50:42;5.18;;;2.90;;
3083;SDS011;1552;51.952;7.618;2023-06-14T02:53:09;4.75;;;2.55;;
3083;SDS011;1552;51.952;7.618;2023-06-14T02:55:35;7.30;;;3.20;;
3083;SDS011;1552;51.952;7.618;2023-06-14T02:58:04;5.00;;;2.70;;
3083;SDS011;1552;51.952;7.618;2023-06-14T03:00:31;4.80;;;2.70;;
3083;SDS011;1552;51.952;7.618;2023-06-14T03:02:57;6.18;;;2.70;;
3083;SDS011;1552;51.952;7.618;2023-06-14T03:05:26;9.85;;;3.05;;
3083;SDS011;1552;51.952;7.618;2023-06-14T03:07:54;4.60;;;2.97;;
3083;SDS011;1552;51.952;7.618;2023-06-14T03:10:20;5.53;;;2.90;;
3083;SDS011;1552;51.952;7.618;2023-06-14T03:12:47;4.78;;;3.08;;
3083;SDS011;1552;51.952;7.618;2023-06-14T03:15:13;5.65;;;3.17;;
3083;SDS011;1552;51.952;7.618;2023-06-14T03:17:40;6.10;;;2.50;;
3083;SDS011;1552;51.952;7.618;2023-06-14T03:20:10;4.38;;;2.92;;
3083;SDS011;1552;51.952;7.618;2023-06-14T03:22:37;6.30;;;2.92;;
3083;SDS011;1552;51.952;7.618;2023-06-14T03:25:06;3.13;;;2.70;;
3083;SDS011;1552;51.952;7.618;2023-06-14T03:27:34;4.65;;;2.70;;
3083;SDS011;1552;51.952;7.618;2023-06-14T03:30:00;4.55;;;2.60;;
3083;SDS011;1552;51.952;7.618;2023-06-14T03:32:27;4.07;;;2.83;;
3083;SDS011;1552;51.952;7.618;2023-06-14T03:34:53;4.40;;;2.90;;
3083;SDS011;1552;51.952;7.618;2023-06-14T03:37:20;4.60;;;2.63;;
3083;SDS011;1552;51.952;7.618;2023-06-14T03:39:47;4.45;;;2.88;;
3083;SDS011;1552;51.952;7.618;2023-06-14T03:42:14;2.97;;;2.67;;
3083;SDS011;1552;51.952;7.618;2023-06-14T03:44:41;5.00;;;2.70;;
3083;SDS011;1552;51.952;7.618;2023-06-14T03:47:07;7.22;;;2.85;;
3083;SDS011;1552;51.952;7.618;2023-06-14T03:49:34;4.03;;;3.15;;
3083;SDS011;1552;51.952;7.618;2023-06-14T03:52:01;8.25;;;2.90;;
3083;SDS011;1552;51.952;7.618;2023-06-14T03:54:28;3.97;;;3.05;;
3083;SDS011;1552;51.952;7.618;2023-06-14T03:56:57;7.45;;;2.75;;
3083;SDS011;1552;51.952;7.618;2023-06-14T03:59:25;7.57;;;2.65;;
3083;SDS011;1552;51.952;7.618;2023-06-14T04:01:51;5.47;;;2.85;;
3083;SDS011;1552;51.952;7.618;2023-06-14T04:04:18;6.10;;;2.60;;
3083;SDS011;1552;51.952;7.618;2023-06-14T04:06:46;7.03;;;3.63;;
3083;SDS011;1552;51.952;7.618;2023-06-14T04:09:13;3.42;;;2.70;;
3083;SDS011;1552;51.952;7.618;2023-06-14T04:11:39;3.85;;;2.60;;
3083;SDS011;1552;51.952;7.618;2023-06-14T04:14:05;5.50;;;2.60;;
3083;SDS011;1552;51.952;7.618;2023-06-14T04:16:33;4.60;;;3.10;;
3083;SDS011;1552;51.952;7.618;2023-06-14T04:19:00;4.85;;;2.80;;
3083;SDS011;1552;51.952;7.618;2023-06-14T04:21:26;5.45;;;2.70;;
3083;SDS011;1552;51.952;7.618;2023-06-14T04:23:53;3.95;;;3.30;;
3083;SDS011;1552;51.952;7.618;2023-06-14T04:26:20;5.13;;;3.22;;
3083;SDS011;1552;51.952;7.618;2023-06-14T04:28:48;7.68;;;2.90;;
3083;SDS011;1552;51.952;7.618;2023-06-14T04:31:15;5.38;;;2.72;;
3083;SDS011;1552;51.952;7.618;2023-06-14T04:33:43;8.15;;;2.58;;
3083;SDS011;1552;51.952;7.618;2023-06-14T04:36:11;4.80;;;2.78;;
3083;SDS011;1552;51.952;7.618;2023-06-14T04:38:38;4.47;;;2.78;;
3083;SDS011;1552;51.952;7.618;2023-06-14T04:41:04;6.03;;;3.05;;
3083;SDS011;1552;51.952;7.618;2023-06-14T04:43:31;8.13;;;2.80;;
3083;SDS011;1552;51.952;7.618;2023-06-14T04:46:03;2.90;;;2.60;;
3083;SDS011;1552;51.952;7.618;2023-06-14T04:48:30;5.25;;;3.03;;
3083;SDS011;1552;51.952;7.618;2023-06-14T04:50:58;4.47;;;2.83;;
3083;SDS011;1552;51.952;7.618;2023-06-14T04:53:25;5.00;;;2.60;;
3083;SDS011;1552;51.952;7.618;2023-06-14T04:55:53;3.03;;;2.47;;
3083;SDS011;1552;51.952;7.618;2023-06-14T04:58:20;9.35;;;3.35;;
3083;SDS011;1552;51.952;7.618;2023-06-14T05:00:46;3.45;;;2.60;;
3083;SDS011;1552;51.952;7.618;2023-06-14T05:03:13;8.48;;;3.10;;
3083;SDS011;1552;51.952;7.618;2023-06-14T05:05:39;6.25;;;2.92;;
3083;SDS011;1552;51.952;7.618;2023-06-14T05:08:07;3.25;;;2.60;;
3083;SDS011;1552;51.952;7.618;2023-06-14T05:10:34;4.65;;;3.00;;
3083;SDS011;1552;51.952;7.618;2023-06-14T05:13:01;3.65;;;2.58;;
3083;SDS011;1552;51.952;7.618;2023-06-14T05:15:27;6.55;;;2.70;;
3083;SDS011;1552;51.952;7.618;2023-06-14T05:17:54;3.92;;;2.90;;
3083;SDS011;1552;51.952;7.618;2023-06-14T05:20:21;5.50;;;2.78;;
3083;SDS011;1552;51.952;7.618;2023-06-14T05:22:48;6.63;;;2.80;;
3083;SDS011;1552;51.952;7.618;2023-06-14T05:25:18;4.68;;;2.40;;
3083;SDS011;1552;51.952;7.618;2023-06-14T05:27:44;5.15;;;2.97;;
3083;SDS011;1552;51.952;7.618;2023-06-14T05:30:11;3.83;;;2.42;;
3083;SDS011;1552;51.952;7.618;2023-06-14T05:32:38;3.40;;;2.33;;
3083;SDS011;1552;51.952;7.618;2023-06-14T05:35:04;3.85;;;2.55;;
3083;SDS011;1552;51.952;7.618;2023-06-14T05:37:31;6.40;;;3.03;;
3083;SDS011;1552;51.952;7.618;2023-06-14T05:39:58;4.70;;;2.20;;
3083;SDS011;1552;51.952;7.618;2023-06-14T05:42:26;8.32;;;2.88;;
3083;SDS011;1552;51.952;7.618;2023-06-14T05:44:52;4.88;;;2.10;;
3083;SDS011;1552;51.952;7.618;2023-06-14T05:47:19;4.60;;;2.50;;
3083;SDS011;1552;51.952;7.618;2023-06-14T05:49:45;2.90;;;2.25;;
3083;SDS011;1552;51.952;7.618;2023-06-14T05:52:11;6.80;;;2.78;;
3083;SDS011;1552;51.952;7.618;2023-06-14T05:54:38;2.50;;;2.25;;
3083;SDS011;1552;51.952;7.618;2023-06-14T05:57:05;3.08;;;2.72;;
3083;SDS011;1552;51.952;7.618;2023-06-14T05:59:32;7.45;;;2.40;;
3083;SDS011;1552;51.952;7.618;2023-06-14T06:01:59;5.75;;;2.65;;
3083;SDS011;1552;51.952;7.618;2023-06-14T06:04:25;7.22;;;2.33;;
3083;SDS011;1552;51.952;7.618;2023-06-14T06:06:51;6.28;;;2.20;;
3083;SDS011;1552;51.952;7.618;2023-06-14T06:09:18;4.22;;;2.50;;
3083;SDS011;1552;51.952;7.618;2023-06-14T06:11:45;5.43;;;2.33;;
3083;SDS011;1552;51.952;7.618;2023-06-14T06:14:11;4.70;;;2.53;;
3083;SDS011;1552;51.952;7.618;2023-06-14T06:16:39;4.15;;;2.72;;
3083;SDS011;1552;51.952;7.618;2023-06-14T06:19:05;3.55;;;2.40;;
3083;SDS011;1552;51.952;7.618;2023-06-14T06:21:31;5.65;;;3.00;;
3083;SDS011;1552;51.952;7.618;2023-06-14T06:23:58;3.53;;;2.20;;
3083;SDS011;1552;51.952;7.618;2023-06-14T06:26:24;3.10;;;1.90;;
3083;SDS011;1552;51.952;7.618;2023-06-14T06:28:51;6.07;;;2.53;;
3083;SDS011;1552;51.952;7.618;2023-06-14T06:31:18;4.68;;;3.17;;
3083;SDS011;1552;51.952;7.618;2023-06-14T06:33:46;4.90;;;2.83;;
3083;SDS011;1552;51.952;7.618;2023-06-14T06:36:12;4.25;;;2.70;;
3083;SDS011;1552;51.952;7.618;2023-06-14T06:38:39;7.28;;;2.42;;
3083;SDS011;1552;51.952;7.618;2023-06-14T06:41:05;4.47;;;2.50;;
3083;SDS011;1552;51.952;7.618;2023-06-14T06:43:32;4.35;;;2.63;;
3083;SDS011;1552;51.952;7.618;2023-06-14T06:45:58;3.33;;;2.13;;
3083;SDS011;1552;51.952;7.618;2023-06-14T06:48:24;5.80;;;2.00;;
3083;SDS011;1552;51.952;7.618;2023-06-14T06:50:52;2.42;;;2.10;;
3083;SDS011;1552;51.952;7.618;2023-06-14T06:53:18;4.15;;;1.95;;
3083;SDS011;1552;51.952;7.618;2023-06-14T06:55:45;2.60;;;1.80;;
3083;SDS011;1552;51.952;7.618;2023-06-14T06:58:11;4.80;;;2.22;;
3083;SDS011;1552;51.952;7.618;2023-06-14T07:00:38;3.65;;;2.10;;
3083;SDS011;1552;51.952;7.618;2023-06-14T07:03:04;3.92;;;2.17;;
3083;SDS011;1552;51.952;7.618;2023-06-14T07:05:31;6.90;;;2.53;;
3083;SDS011;1552;51.952;7.618;2023-06-14T07:08:00;8.68;;;2.85;;
3083;SDS011;1552;51.952;7.618;2023-06-14T07:10:26;4.10;;;2.17;;
3083;SDS011;1552;51.952;7.618;2023-06-14T07:12:52;2.78;;;2.05;;
3083;SDS011;1552;51.952;7.618;2023-06-14T07:15:19;4.40;;;2.15;;
3083;SDS011;1552;51.952;7.618;2023-06-14T07:17:46;2.00;;;1.80;;
3083;SDS011;1552;51.952;7.618;2023-06-14T07:20:12;5.53;;;2.10;;
3083;SDS011;1552;51.952;7.618;2023-06-14T07:22:40;4.38;;;2.33;;
3083;SDS011;1552;51.952;7.618;2023-06-14T07:25:09;3.90;;;1.50;;
3083;SDS011;1552;51.952;7.618;2023-06-14T07:27:38;4.05;;;2.75;;
3083;SDS011;1552;51.952;7.618;2023-06-14T07:30:05;3.13;;;1.90;;
3083;SDS011;1552;51.952;7.618;2023-06-14T07:32:32;3.17;;;1.85;;
3083;SDS011;1552;51.952;7.618;2023-06-14T07:34:58;3.22;;;2.53;;
3083;SDS011;1552;51.952;7.618;2023-06-14T07:37:24;2.22;;;1.90;;
3083;SDS011;1552;51.952;7.618;2023-06-14T07:39:51;4.72;;;2.33;;
3083;SDS011;1552;51.952;7.618;2023-06-14T07:42:18;5.07;;;2.20;;
3083;SDS011;1552;51.952;7.618;2023-06-14T07:44:45;5.03;;;2.50;;
3083;SDS011;1552;51.952;7.618;2023-06-14T07:47:12;3.55;;;2.50;;
3083;SDS011;1552;51.952;7.618;2023-06-14T07:49:38;3.42;;;2.25;;
3083;SDS011;1552;51.952;7.618;2023-06-14T07:52:05;3.83;;;1.80;;
3083;SDS011;1552;51.952;7.618;2023-06-14T07:54:32;3.85;;;2.40;;
3083;SDS011;1552;51.952;7.618;2023-06-14T07:56:58;5.03;;;2.20;;
3083;SDS011;1552;51.952;7.618;2023-06-14T07:59:27;4.03;;;1.90;;
3083;SDS011;1552;51.952;7.618;2023-06-14T08:01:53;3.70;;;2.00;;
3083;SDS011;1552;51.952;7.618;2023-06-14T08:04:19;2.80;;;2.17;;
3083;SDS011;1552;51.952;7.618;2023-06-14T08:06:46;3.70;;;2.33;;
3083;SDS011;1552;51.952;7.618;2023-06-14T08:09:13;3.53;;;2.20;;
3083;SDS011;1552;51.952;7.618;2023-06-14T08:11:39;2.45;;;1.90;;
3083;SDS011;1552;51.952;7.618;2023-06-14T08:14:05;5.25;;;2.42;;
3083;SDS011;1552;51.952;7.618;2023-06-14T08:16:33;4.00;;;1.98;;
3083;SDS011;1552;51.952;7.618;2023-06-14T08:19:00;3.65;;;2.10;;
3083;SDS011;1552;51.952;7.618;2023-06-14T08:21:26;2.95;;;1.80;;
3083;SDS011;1552;51.952;7.618;2023-06-14T08:23:54;2.90;;;1.70;;
3083;SDS011;1552;51.952;7.618;2023-06-14T08:26:20;3.75;;;1.58;;
3083;SDS011;1552;51.952;7.618;2023-06-14T08:28:47;2.50;;;2.03;;
3083;SDS011;1552;51.952;7.618;2023-06-14T08:31:13;3.53;;;2.50;;
3083;SDS011;1552;51.952;7.618;2023-06-14T08:33:41;3.33;;;1.70;;
3083;SDS011;1552;51.952;7.618;2023-06-14T08:36:08;2.13;;;1.40;;
3083;SDS011;1552;51.952;7.618;2023-06-14T08:38:35;4.18;;;1.80;;
3083;SDS011;1552;51.952;7.618;2023-06-14T08:41:02;4.10;;;1.77;;
3083;SDS011;1552;51.952;7.618;2023-06-14T08:43:30;1.45;;;1.30;;
3083;SDS011;1552;51.952;7.618;2023-06-14T08:45:57;2.10;;;1.50;;
3083;SDS011;1552;51.952;7.618;2023-06-14T08:48:25;5.28;;;1.80;;
3083;SDS011;1552;51.952;7.618;2023-06-14T08:50:54;2.88;;;1.80;;
3083;SDS011;1552;51.952;7.618;2023-06-14T08:53:26;2.88;;;1.60;;
3083;SDS011;1552;51.952;7.618;2023-06-14T08:55:53;1.75;;;1.40;;
3083;SDS011;1552;51.952;7.618;2023-06-14T08:58:20;1.73;;;1.35;;
3083;SDS011;1552;51.952;7.618;2023-06-14T09:00:49;4.95;;;1.67;;
3083;SDS011;1552;51.952;7.618;2023-06-14T09:03:17;3.70;;;1.80;;
3083;SDS011;1552;51.952;7.618;2023-06-14T09:05:45;2.60;;;1.38;;
3083;SDS011;1552;51.952;7.618;2023-06-14T09:08:14;2.22;;;1.50;;
3083;SDS011;1552;51.952;7.618;2023-06-14T09:10:41;2.90;;;1.38;;
3083;SDS011;1552;51.952;7.618;2023-06-14T09:13:07;5.03;;;1.20;;
3083;SDS011;1552;51.952;7.618;2023-06-14T09:15:34;1.92;;;1.40;;
3083;SDS011;1552;51.952;7.618;2023-06-14T09:18:01;3.08;;;1.50;;
3083;SDS011;1552;51.952;7.618;2023-06-14T09:20:28;3.63;;;1.40;;
3083;SDS011;1552;51.952;7.618;2023-06-14T09:22:55;1.60;;;1.40;;
3083;SDS011;1552;51.952;7.618;2023-06-14T09:25:23;4.22;;;2.03;;
3083;SDS011;1552;51.952;7.618;2023-06-14T09:27:51;5.35;;;2.75;;
3083;SDS011;1552;51.952;7.618;2023-06-14T09:30:19;3.47;;;1.50;;
3083;SDS011;1552;51.952;7.618;2023-06-14T09:32:46;1.60;;;1.40;;
3083;SDS011;1552;51.952;7.618;2023-06-14T09:35:12;5.82;;;1.85;;
3083;SDS011;1552;51.952;7.618;2023-06-14T09:37:43;3.10;;;1.48;;
3083;SDS011;1552;51.952;7.618;2023-06-14T09:40:10;3.47;;;1.60;;
3083;SDS011;1552;51.952;7.618;2023-06-14T09:42:38;5.72;;;1.60;;
3083;SDS011;1552;51.952;7.618;2023-06-14T09:45:06;2.35;;;1.40;;
3083;SDS011;1552;51.952;7.618;2023-06-14T09:47:32;2.83;;;1.42;;
3083;SDS011;1552;51.952;7.618;2023-06-14T09:49:58;3.38;;;1.50;;
3083;SDS011;1552;51.952;7.618;2023-06-14T09:52:25;1.52;;;1.00;;
3083;SDS011;1552;51.952;7.618;2023-06-14T09:54:52;1.60;;;1.50;;
3083;SDS011;1552;51.952;7.618;2023-06-14T09:57:20;4.30;;;1.20;;
3083;SDS011;1552;51.952;7.618;2023-06-14T09:59:48;2.63;;;1.70;;
3083;SDS011;1552;51.952;7.618;2023-06-14T10:02:18;2.85;;;1.58;;
3083;SDS011;1552;51.952;7.618;2023-06-14T10:04:46;3.13;;;1.35;;
3083;SDS011;1552;51.952;7.618;2023-06-14T10:07:16;3.25;;;1.48;;
3083;SDS011;1552;51.952;7.618;2023-06-14T10:09:45;1.80;;;1.67;;
3083;SDS011;1552;51.952;7.618;2023-06-14T10:12:14;8.10;;;2.60;;
3083;SDS011;1552;51.952;7.618;2023-06-14T10:14:45;2.08;;;1.70;;
3083;SDS011;1552;51.952;7.618;2023-06-14T10:17:17;6.18;;;1.95;;
3083;SDS011;1552;51.952;7.618;2023-06-14T10:19:47;2.03;;;1.30;;
3083;SDS011;1552;51.952;7.618;2023-06-14T10:22:18;3.28;;;1.52;;
3083;SDS011;1552;51.952;7.618;2023-06-14T10:24:47;3.85;;;1.88;;
3083;SDS011;1552;51.952;7.618;2023-06-14T10:27:15;3.47;;;1.35;;
3083;SDS011;1552;51.952;7.618;2023-06-14T10:32:26;6.43;;;3.00;;
3083;SDS011;1552;51.952;7.618;2023-06-14T10:34:54;3.40;;;1.80;;
3083;SDS011;1552;51.952;7.618;2023-06-14T10:37:21;4.30;;;2.10;;
3083;SDS011;1552;51.952;7.618;2023-06-14T10:39:47;4.78;;;1.95;;
3083;SDS011;1552;51.952;7.618;2023-06-14T10:42:14;5.38;;;2.17;;
3083;SDS011;1552;51.952;7.618;2023-06-14T10:44:41;8.07;;;1.98;;
3083;SDS011;1552;51.952;7.618;2023-06-14T10:47:09;5.03;;;2.08;;
3083;SDS011;1552;51.952;7.618;2023-06-14T10:49:38;4.47;;;2.70;;
3083;SDS011;1552;51.952;7.618;2023-06-14T10:52:07;5.72;;;1.95;;
3083;SDS011;1552;51.952;7.618;2023-06-14T10:54:34;1.95;;;1.75;;
3083;SDS011;1552;51.952;7.618;2023-06-14T10:57:00;2.78;;;1.60;;
3083;SDS011;1552;51.952;7.618;2023-06-14T10:59:27;7.30;;;2.33;;
3083;SDS011;1552;51.952;7.618;2023-06-14T11:01:55;5.55;;;2.10;;
3083;SDS011;1552;51.952;7.618;2023-06-14T11:04:23;6.28;;;2.22;;
3083;SDS011;1552;51.952;7.618;2023-06-14T11:06:54;8.10;;;2.30;;
3083;SDS011;1552;51.952;7.618;2023-06-14T11:09:35;3.25;;;1.65;;
3083;SDS011;1552;51.952;7.618;2023-06-14T11:12:06;4.07;;;2.00;;
3083;SDS011;1552;51.952;7.618;2023-06-14T11:14:35;4.15;;;1.70;;
3083;SDS011;1552;51.952;7.618;2023-06-14T11:17:01;2.88;;;2.55;;
3083;SDS011;1552;51.952;7.618;2023-06-14T11:19:28;2.33;;;1.60;;
3083;SDS011;1552;51.952;7.618;2023-06-14T11:21:56;2.88;;;1.65;;
3083;SDS011;1552;51.952;7.618;2023-06-14T11:24:22;5.15;;;1.75;;
3083;SDS011;1552;51.952;7.618;2023-06-14T11:26:49;4.03;;;1.98;;
3083;SDS011;1552;51.952;7.618;2023-06-14T11:29:16;3.25;;;1.80;;
3083;SDS011;1552;51.952;7.618;2023-06-14T11:31:43;3.03;;;2.00;;
3083;SDS011;1552;51.952;7.618;2023-06-14T11:34:09;3.45;;;1.90;;
3083;SDS011;1552;51.952;7.618;2023-06-14T11:36:36;3.25;;;1.67;;
3083;SDS011;1552;51.952;7.618;2023-06-14T11:39:04;3.17;;;1.85;;
3083;SDS011;1552;51.952;7.618;2023-06-14T11:41:32;3.00;;;1.63;;
3083;SDS011;1552;51.952;7.618;2023-06-14T11:43:59;4.07;;;2.53;;
3083;SDS011;1552;51.952;7.618;2023-06-14T11:46:26;4.00;;;1.90;;
3083;SDS011;1552;51.952;7.618;2023-06-14T11:48:52;3.65;;;1.55;;
3083;SDS011;1552;51.952;7.618;2023-06-14T11:51:19;3.22;;;1.75;;
3083;SDS011;1552;51.952;7.618;2023-06-14T11:53:45;2.53;;;1.80;;
3083;SDS011;1552;51.952;7.618;2023-06-14T11:56:13;5.03;;;2.03;;
3083;SDS011;1552;51.952;7.618;2023-06-14T11:58:40;1.58;;;1.48;;
3083;SDS011;1552;51.952;7.618;2023-06-14T12:01:08;4.65;;;2.30;;
3083;SDS011;1552;51.952;7.618;2023-06-14T12:03:35;2.53;;;1.70;;
3083;SDS011;1552;51.952;7.618;2023-06-14T12:06:04;2.72;;;2.00;;
3083;SDS011;1552;51.952;7.618;2023-06-14T12:08:34;3.33;;;1.75;;
3083;SDS011;1552;51.952;7.618;2023-06-14T12:11:04;2.90;;;2.17;;
3083;SDS011;1552;51.952;7.618;2023-06-14T12:13:32;4.20;;;1.67;;
3083;SDS011;1552;51.952;7.618;2023-06-14T12:15:58;2.67;;;2.13;;
3083;SDS011;1552;51.952;7.618;2023-06-14T12:18:31;2.67;;;1.90;;
3083;SDS011;1552;51.952;7.618;2023-06-14T12:20:58;9.63;;;3.50;;
3083;SDS011;1552;51.952;7.618;2023-06-14T12:23:27;3.40;;;2.10;;
3083;SDS011;1552;51.952;7.618;2023-06-14T12:26:04;2.83;;;1.92;;
3083;SDS011;1552;51.952;7.618;2023-06-14T12:28:32;2.67;;;2.20;;
3083;SDS011;1552;51.952;7.618;2023-06-14T12:30:59;5.63;;;1.80;;
3083;SDS011;1552;51.952;7.618;2023-06-14T12:33:25;4.82;;;1.73;;
3083;SDS011;1552;51.952;7.618;2023-06-14T12:35:53;2.30;;;1.73;;
3083;SDS011;1552;51.952;7.618;2023-06-14T12:38:20;2.60;;;1.90;;
3083;SDS011;1552;51.952;7.618;2023-06-14T12:40:47;2.85;;;1.75;;
3083;SDS011;1552;51.952;7.618;2023-06-14T12:43:14;6.00;;;2.72;;
3083;SDS011;1552;51.952;7.618;2023-06-14T12:45:42;6.60;;;1.98;;
3083;SDS011;1552;51.952;7.618;2023-06-14T12:48:09;3.08;;;2.20;;
3083;SDS011;1552;51.952;7.618;2023-06-14T12:50:35;3.47;;;2.60;;
3083;SDS011;1552;51.952;7.618;2023-06-14T12:53:02;4.13;;;2.33;;
3083;SDS011;1552;51.952;7.618;2023-06-14T12:55:28;5.82;;;1.80;;
3083;SDS011;1552;51.952;7.618;2023-06-14T12:57:55;3.90;;;2.00;;
3083;SDS011;1552;51.952;7.618;2023-06-14T13:00:21;4.45;;;1.90;;
3083;SDS011;1552;51.952;7.618;2023-06-14T13:02:50;3.75;;;2.38;;
3083;SDS011;1552;51.952;7.618;2023-06-14T13:05:17;2.20;;;1.60;;
3083;SDS011;1552;51.952;7.618;2023-06-14T13:07:43;7.05;;;2.80;;
3083;SDS011;1552;51.952;7.618;2023-06-14T13:10:09;3.63;;;2.20;;
3083;SDS011;1552;51.952;7.618;2023-06-14T13:12:36;3.78;;;2.30;;
3083;SDS011;1552;51.952;7.618;2023-06-14T13:15:02;5.28;;;2.50;;
3083;SDS011;1552;51.952;7.618;2023-06-14T13:17:29;3.03;;;2.00;;
3083;SDS011;1552;51.952;7.618;2023-06-14T13:19:59;3.50;;;1.70;;
3083;SDS011;1552;51.952;7.618;2023-06-14T13:22:26;5.68;;;2.35;;
3083;SDS011;1552;51.952;7.618;2023-06-14T13:24:52;8.77;;;2.10;;
3083;SDS011;1552;51.952;7.618;2023-06-14T13:27:19;5.03;;;2.33;;
3083;SDS011;1552;51.952;7.618;2023-06-14T13:29:45;3.83;;;1.75;;
3083;SDS011;1552;51.952;7.618;2023-06-14T13:32:12;2.92;;;1.58;;
3083;SDS011;1552;51.952;7.618;2023-06-14T13:34:38;4.82;;;2.17;;
3083;SDS011;1552;51.952;7.618;2023-06-14T13:37:06;2.40;;;1.75;;
3083;SDS011;1552;51.952;7.618;2023-06-14T13:39:32;4.05;;;2.00;;
3083;SDS011;1552;51.952;7.618;2023-06-14T13:41:59;2.72;;;2.15;;
3083;SDS011;1552;51.952;7.618;2023-06-14T13:44:25;2.92;;;1.85;;
3083;SDS011;1552;51.952;7.618;2023-06-14T13:46:51;2.75;;;1.98;;
3083;SDS011;1552;51.952;7.618;2023-06-14T13:49:18;3.83;;;3.10;;
3083;SDS011;1552;51.952;7.618;2023-06-14T13:51:44;4.38;;;2.75;;
3083;SDS011;1552;51.952;7.618;2023-06-14T13:54:13;5.88;;;2.65;;
3083;SDS011;1552;51.952;7.618;2023-06-14T13:56:40;3.53;;;1.80;;
3083;SDS011;1552;51.952;7.618;2023-06-14T13:59:06;4.28;;;2.22;;
3083;SDS011;1552;51.952;7.618;2023-06-14T14:01:33;5.32;;;2.70;;
3083;SDS011;1552;51.952;7.618;2023-06-14T14:03:59;4.82;;;2.17;;
3083;SDS011;1552;51.952;7.618;2023-06-14T14:06:26;3.17;;;2.17;;
3083;SDS011;1552;51.952;7.618;2023-06-14T14:08:53;4.70;;;2.63;;
3083;SDS011;1552;51.952;7.618;2023-06-14T14:11:21;3.40;;;2.00;;
3083;SDS011;1552;51.952;7.618;2023-06-14T14:13:47;3.47;;;1.67;;
3083;SDS011;1552;51.952;7.618;2023-06-14T14:16:14;5.10;;;2.20;;
3083;SDS011;1552;51.952;7.618;2023-06-14T14:18:40;3.85;;;2.60;;
3083;SDS011;1552;51.952;7.618;2023-06-14T14:21:07;4.95;;;2.75;;
3083;SDS011;1552;51.952;7.618;2023-06-14T14:23:34;3.40;;;2.35;;
3083;SDS011;1552;51.952;7.618;2023-06-14T14:26:00;3.90;;;1.90;;
3083;SDS011;1552;51.952;7.618;2023-06-14T14:28:30;4.22;;;2.20;;
3083;SDS011;1552;51.952;7.618;2023-06-14T14:30:57;6.88;;;3.03;;
3083;SDS011;1552;51.952;7.618;2023-06-14T14:33:24;6.05;;;2.63;;
3083;SDS011;1552;51.952;7.618;2023-06-14T14:35:50;4.65;;;2.15;;
3083;SDS011;1552;51.952;7.618;2023-06-14T14:38:17;4.57;;;2.80;;
3083;SDS011;1552;51.952;7.618;2023-06-14T14:40:43;4.57;;;2.47;;
3083;SDS011;1552;51.952;7.618;2023-06-14T14:43:10;4.18;;;2.08;;
3083;SDS011;1552;51.952;7.618;2023-06-14T14:45:37;5.13;;;2.70;;
3083;SDS011;1552;51.952;7.618;2023-06-14T14:48:04;3.20;;;2.00;;
3083;SDS011;1552;51.952;7.618;2023-06-14T14:50:32;5.65;;;2.45;;
3083;SDS011;1552;51.952;7.618;2023-06-14T14:52:59;3.65;;;2.10;;
3083;SDS011;1552;51.952;7.618;2023-06-14T14:55:25;5.35;;;2.28;;
3083;SDS011;1552;51.952;7.618;2023-06-14T14:57:51;2.08;;;1.80;;
3083;SDS011;1552;51.952;7.618;2023-06-14T15:00:18;3.90;;;2.58;;
3083;SDS011;1552;51.952;7.618;2023-06-14T15:02:46;5.60;;;1.80;;
3083;SDS011;1552;51.952;7.618;2023-06-14T15:05:12;3.28;;;1.90;;
3083;SDS011;1552;51.952;7.618;2023-06-14T15:07:39;4.22;;;2.72;;
3083;SDS011;1552;51.952;7.618;2023-06-14T15:10:06;8.98;;;1.98;;
3083;SDS011;1552;51.952;7.618;2023-06-14T15:12:33;4.45;;;2.20;;
3083;SDS011;1552;51.952;7.618;2023-06-14T15:14:59;3.90;;;2.00;;
3083;SDS011;1552;51.952;7.618;2023-06-14T15:17:26;1.65;;;1.55;;